createdAt,value
2023-02-19T00:01:09.634Z,8.79
2023-02-19T00:03:13.033Z,8.79
2023-02-19T00:05:16.472Z,8.81
2023-02-19T00:07:19.813Z,8.80
2023-02-19T00:09:24.538Z,8.85
2023-02-19T00:11:30.706Z,8.86
2023-02-19T00:13:37.658Z,8.86
2023-02-19T00:15:40.972Z,8.85
2023-02-19T00:17:44.456Z,8.82
2023-02-19T00:19:47.732Z,8.78
2023-02-19T00:21:52.956Z,8.76
2023-02-19T00:23:59.412Z,8.74
2023-02-19T00:26:17.560Z,8.72
2023-02-19T00:28:24.258Z,8.72
2023-02-19T00:30:27.681Z,8.72
2023-02-19T00:32:31.230Z,8.73
2023-02-19T00:34:34.622Z,8.70
2023-02-19T00:36:39.724Z,8.71
2023-02-19T00:38:44.711Z,8.70
2023-02-19T00:40:47.997Z,8.67
2023-02-19T00:42:52.803Z,8.66
2023-02-19T00:44:56.224Z,8.64
2023-02-19T00:46:59.676Z,8.65
2023-02-19T00:49:03.519Z,8.62
2023-02-19T00:51:07.178Z,8.63
2023-02-19T00:53:10.449Z,8.61
2023-02-19T00:55:13.843Z,8.62
2023-02-19T00:57:17.286Z,8.61
2023-02-19T00:59:22.083Z,8.60
2023-02-19T01:01:25.551Z,8.59
2023-02-19T01:03:29.055Z,8.59
2023-02-19T01:05:32.397Z,8.57
2023-02-19T01:07:37.422Z,8.56
2023-02-19T01:09:40.801Z,8.56
2023-02-19T01:11:44.261Z,8.57
2023-02-19T01:13:47.566Z,8.57
2023-02-19T01:15:52.506Z,8.57
2023-02-19T01:17:55.891Z,8.56
2023-02-19T01:19:59.292Z,8.56
2023-02-19T01:22:03.426Z,8.55
2023-02-19T01:24:07.367Z,8.54
2023-02-19T01:26:15.064Z,8.55
2023-02-19T01:28:18.340Z,8.55
2023-02-19T01:30:21.776Z,8.53
2023-02-19T01:32:26.591Z,8.54
2023-02-19T01:34:33.405Z,8.52
2023-02-19T01:36:37.480Z,8.52
2023-02-19T01:38:40.710Z,8.52
2023-02-19T01:40:43.945Z,8.51
2023-02-19T01:42:47.251Z,8.51
2023-02-19T01:45:18.764Z,8.51
2023-02-19T01:47:22.203Z,8.50
2023-02-19T01:49:30.263Z,8.47
2023-02-19T01:51:34.930Z,8.46
2023-02-19T01:53:40.819Z,8.43
2023-02-19T01:55:47.296Z,8.42
2023-02-19T01:57:54.590Z,8.43
2023-02-19T02:00:03.321Z,8.45
2023-02-19T02:02:15.591Z,8.45
2023-02-19T02:04:20.087Z,8.43
2023-02-19T02:06:29.399Z,8.41
2023-02-19T02:08:51.214Z,8.39
2023-02-19T02:10:58.640Z,8.38
2023-02-19T02:13:02.040Z,8.40
2023-02-19T02:15:05.873Z,8.38
2023-02-19T02:17:21.565Z,8.40
2023-02-19T02:19:54.796Z,8.40
2023-02-19T02:22:08.315Z,8.40
2023-02-19T02:24:42.767Z,8.39
2023-02-19T02:26:57.094Z,8.37
2023-02-19T02:29:38.322Z,8.33
2023-02-19T02:31:51.147Z,8.29
2023-02-19T02:34:00.865Z,8.30
2023-02-19T02:36:09.037Z,8.29
2023-02-19T02:38:16.838Z,8.31
2023-02-19T02:40:21.147Z,8.29
2023-02-19T02:42:30.170Z,8.29
2023-02-19T02:44:41.072Z,8.27
2023-02-19T02:46:47.732Z,8.26
2023-02-19T02:48:55.558Z,8.22
2023-02-19T02:51:04.440Z,8.22
2023-02-19T02:53:36.406Z,8.20
2023-02-19T02:55:44.181Z,8.20
2023-02-19T02:57:47.896Z,8.21
2023-02-19T02:59:51.733Z,8.20
2023-02-19T03:02:12.170Z,8.19
2023-02-19T03:04:16.277Z,8.16
2023-02-19T03:06:22.390Z,8.16
2023-02-19T03:08:31.388Z,8.16
2023-02-19T03:10:41.017Z,8.14
2023-02-19T03:13:04.552Z,8.13
2023-02-19T03:15:29.198Z,8.13
2023-02-19T03:17:57.666Z,8.12
2023-02-19T03:20:05.065Z,8.09
2023-02-19T03:22:15.909Z,8.07
2023-02-19T03:24:39.633Z,8.06
2023-02-19T03:26:45.343Z,8.05
2023-02-19T03:29:10.206Z,8.06
2023-02-19T03:31:22.028Z,8.04
2023-02-19T03:33:30.440Z,8.04
2023-02-19T03:35:36.923Z,8.04
2023-02-19T03:37:45.473Z,8.04
2023-02-19T03:39:48.848Z,8.01
2023-02-19T03:42:01.283Z,8.02
2023-02-19T03:44:09.244Z,8.03
2023-02-19T03:46:17.140Z,8.06
2023-02-19T03:48:34.478Z,8.07
2023-02-19T03:50:42.697Z,8.06
2023-02-19T03:52:55.609Z,8.08
2023-02-19T03:55:08.409Z,8.10
2023-02-19T03:57:20.464Z,8.12
2023-02-19T03:59:31.568Z,8.12
2023-02-19T04:01:43.546Z,8.13
2023-02-19T04:03:55.936Z,8.13
2023-02-19T04:06:03.747Z,8.16
2023-02-19T04:08:14.500Z,8.16
2023-02-19T04:10:24.071Z,8.17
2023-02-19T04:12:31.169Z,8.17
2023-02-19T04:14:40.038Z,8.20
2023-02-19T04:16:49.014Z,8.21
2023-02-19T04:18:58.216Z,8.23
2023-02-19T04:21:02.219Z,8.23
2023-02-19T04:23:05.758Z,8.23
2023-02-19T04:25:09.679Z,8.22
2023-02-19T04:27:13.187Z,8.19
2023-02-19T04:29:16.606Z,8.20
2023-02-19T04:31:19.952Z,8.17
2023-02-19T04:33:23.342Z,8.14
2023-02-19T04:35:27.983Z,8.14
2023-02-19T04:37:31.191Z,8.14
2023-02-19T04:39:34.990Z,8.16
2023-02-19T04:41:38.366Z,8.17
2023-02-19T04:43:41.693Z,8.18
2023-02-19T04:45:44.968Z,8.19
2023-02-19T04:47:48.230Z,8.20
2023-02-19T04:49:51.522Z,8.17
2023-02-19T04:51:56.229Z,8.17
2023-02-19T04:53:59.467Z,8.19
2023-02-19T04:56:07.870Z,8.19
2023-02-19T04:58:11.110Z,8.19
2023-02-19T05:00:15.601Z,8.20
2023-02-19T05:02:18.810Z,8.19
2023-02-19T05:04:22.338Z,8.19
2023-02-19T05:06:25.651Z,8.19
2023-02-19T05:08:30.280Z,8.19
2023-02-19T05:10:33.811Z,8.18
2023-02-19T05:12:37.017Z,8.19
2023-02-19T05:14:40.230Z,8.18
2023-02-19T05:16:43.680Z,8.18
2023-02-19T05:18:48.031Z,8.18
2023-02-19T05:20:52.320Z,8.18
2023-02-19T05:22:55.521Z,8.19
2023-02-19T05:25:00.126Z,8.19
2023-02-19T05:27:03.490Z,8.20
2023-02-19T05:29:06.816Z,8.19
2023-02-19T05:31:12.374Z,8.18
2023-02-19T05:33:16.911Z,8.17
2023-02-19T05:35:20.112Z,8.17
2023-02-19T05:37:23.359Z,8.18
2023-02-19T05:39:26.579Z,8.18
2023-02-19T05:41:31.880Z,8.18
2023-02-19T05:43:35.221Z,8.17
2023-02-19T05:45:38.957Z,8.17
2023-02-19T05:47:42.163Z,8.16
2023-02-19T05:49:45.448Z,8.16
2023-02-19T05:51:51.928Z,8.18
2023-02-19T05:53:56.526Z,8.19
2023-02-19T05:56:00.303Z,8.18
2023-02-19T05:58:05.177Z,8.18
2023-02-19T06:00:09.669Z,8.15
2023-02-19T06:02:15.374Z,8.13
2023-02-19T06:04:20.146Z,8.12
2023-02-19T06:06:24.259Z,8.12
2023-02-19T06:08:27.512Z,8.10
2023-02-19T06:10:30.881Z,8.10
2023-02-19T06:12:34.338Z,8.09
2023-02-19T06:14:38.980Z,8.07
2023-02-19T06:16:43.074Z,8.07
2023-02-19T06:18:46.534Z,8.08
2023-02-19T06:20:49.822Z,8.04
2023-02-19T06:22:53.113Z,8.04
2023-02-19T06:24:56.388Z,8.01
2023-02-19T06:26:59.645Z,8.00
2023-02-19T06:29:02.943Z,7.97
2023-02-19T06:31:08.665Z,7.94
2023-02-19T06:33:12.050Z,7.93
2023-02-19T06:35:15.387Z,7.92
2023-02-19T06:37:18.604Z,7.91
2023-02-19T06:39:21.776Z,7.91
2023-02-19T06:41:25.020Z,7.89
2023-02-19T06:43:28.244Z,7.88
2023-02-19T06:45:31.438Z,7.88
2023-02-19T06:47:36.110Z,7.87
2023-02-19T06:49:40.787Z,7.85
2023-02-19T06:51:44.242Z,7.82
2023-02-19T06:53:47.780Z,7.82
2023-02-19T06:55:57.324Z,7.82
2023-02-19T06:58:00.699Z,7.79
2023-02-19T07:00:04.784Z,7.78
2023-02-19T07:02:08.474Z,7.76
2023-02-19T07:04:13.623Z,7.76
2023-02-19T07:06:16.803Z,7.75
2023-02-19T07:08:20.044Z,7.75
2023-02-19T07:10:23.325Z,7.73
2023-02-19T07:12:26.576Z,7.73
2023-02-19T07:14:30.813Z,7.74
2023-02-19T07:16:34.091Z,7.74
2023-02-19T07:18:37.379Z,7.74
2023-02-19T07:20:42.038Z,7.75
2023-02-19T07:22:45.303Z,7.74
2023-02-19T07:24:48.484Z,7.75
2023-02-19T07:26:51.690Z,7.76
2023-02-19T07:28:54.959Z,7.76
2023-02-19T07:31:03.449Z,7.77
2023-02-19T07:33:09.342Z,7.77
2023-02-19T07:35:13.540Z,7.77
2023-02-19T07:37:18.242Z,7.76
2023-02-19T07:39:21.432Z,7.75
2023-02-19T07:41:25.126Z,7.74
2023-02-19T07:43:30.941Z,7.74
2023-02-19T07:45:34.247Z,7.74
2023-02-19T07:47:37.682Z,7.74
2023-02-19T07:49:40.947Z,7.75
2023-02-19T07:51:44.712Z,7.74
2023-02-19T07:53:51.442Z,7.71
2023-02-19T07:55:54.821Z,7.69
2023-02-19T07:57:59.697Z,7.69
2023-02-19T08:00:03.516Z,7.69
2023-02-19T08:02:35.876Z,7.69
2023-02-19T08:04:39.284Z,7.68
2023-02-19T08:06:43.273Z,7.66
2023-02-19T08:08:46.459Z,7.66
2023-02-19T08:11:08.802Z,7.67
2023-02-19T08:13:23.772Z,7.67
2023-02-19T08:15:27.068Z,7.67
2023-02-19T08:17:31.354Z,7.66
2023-02-19T08:19:34.635Z,7.68
2023-02-19T08:21:38.055Z,7.68
2023-02-19T08:23:41.455Z,7.69
2023-02-19T08:25:45.467Z,7.71
2023-02-19T08:27:50.153Z,7.72
2023-02-19T08:29:53.538Z,7.74
2023-02-19T08:31:56.836Z,7.75
2023-02-19T08:34:00.179Z,7.77
2023-02-19T08:36:05.619Z,7.79
2023-02-19T08:38:09.163Z,7.81
2023-02-19T08:40:13.276Z,7.81
2023-02-19T08:42:16.507Z,7.81
2023-02-19T08:44:21.248Z,7.83
2023-02-19T08:46:24.673Z,7.85
2023-02-19T08:48:28.096Z,7.86
2023-02-19T08:50:31.829Z,7.86
2023-02-19T08:52:35.698Z,7.87
2023-02-19T08:54:39.056Z,7.90
2023-02-19T08:56:42.546Z,7.94
2023-02-19T08:58:47.172Z,7.96
2023-02-19T09:00:51.842Z,7.99
2023-02-19T09:02:55.216Z,8.00
2023-02-19T09:04:58.474Z,8.01
2023-02-19T09:07:01.897Z,8.01
2023-02-19T09:09:05.743Z,8.01
2023-02-19T09:11:09.329Z,7.99
2023-02-19T09:13:13.098Z,8.01
2023-02-19T09:15:16.717Z,8.01
2023-02-19T09:17:21.468Z,8.01
2023-02-19T09:19:25.068Z,7.99
2023-02-19T09:21:28.334Z,7.98
2023-02-19T09:23:31.641Z,7.99
2023-02-19T09:25:35.047Z,7.99
2023-02-19T09:27:38.484Z,8.02
2023-02-19T09:29:41.902Z,8.06
2023-02-19T09:31:45.327Z,8.11
2023-02-19T09:33:50.677Z,8.16
2023-02-19T09:35:54.106Z,8.21
2023-02-19T09:38:00.880Z,8.25
2023-02-19T09:40:04.357Z,8.34
2023-02-19T09:42:15.567Z,8.49
2023-02-19T09:44:25.905Z,8.68
2023-02-19T09:46:33.223Z,8.87
2023-02-19T09:48:36.801Z,9.03
2023-02-19T09:50:46.109Z,9.10
2023-02-19T09:52:53.431Z,9.10
2023-02-19T09:55:00.605Z,9.01
2023-02-19T09:57:05.313Z,8.95
2023-02-19T09:59:20.741Z,8.89
2023-02-19T10:01:26.891Z,8.86
2023-02-19T10:03:34.403Z,8.84
2023-02-19T10:05:40.143Z,8.81
2023-02-19T10:07:47.397Z,8.80
2023-02-19T10:09:57.096Z,8.81
2023-02-19T10:12:01.264Z,8.83
2023-02-19T10:14:09.430Z,8.85
2023-02-19T10:16:17.692Z,8.87
2023-02-19T10:18:23.750Z,8.87
2023-02-19T10:20:29.144Z,8.88
2023-02-19T10:22:34.325Z,8.89
2023-02-19T10:24:41.389Z,8.90
2023-02-19T10:26:44.735Z,8.88
2023-02-19T10:28:47.953Z,8.87
2023-02-19T10:30:55.113Z,8.89
2023-02-19T10:33:04.790Z,8.90
2023-02-19T10:35:13.369Z,8.93
2023-02-19T10:37:19.434Z,9.00
2023-02-19T10:39:46.419Z,9.03
2023-02-19T10:41:51.001Z,9.03
2023-02-19T10:43:57.617Z,9.07
2023-02-19T10:46:04.826Z,9.04
2023-02-19T10:48:24.936Z,9.02
2023-02-19T10:50:33.090Z,9.04
2023-02-19T10:52:37.100Z,9.06
2023-02-19T10:54:40.981Z,9.09
2023-02-19T10:56:46.101Z,9.14
2023-02-19T10:58:49.011Z,9.12
2023-02-19T11:01:12.239Z,9.16
2023-02-19T11:03:24.127Z,9.19
2023-02-19T11:05:27.458Z,9.21
2023-02-19T11:07:30.893Z,9.20
2023-02-19T11:09:39.643Z,9.23
2023-02-19T11:11:43.031Z,9.25
2023-02-19T11:13:48.552Z,9.27
2023-02-19T11:15:54.334Z,9.29
2023-02-19T11:18:01.474Z,9.30
2023-02-19T11:20:15.444Z,9.32
2023-02-19T11:22:30.830Z,9.37
2023-02-19T11:24:37.563Z,9.43
2023-02-19T11:26:40.879Z,9.47
2023-02-19T11:28:45.541Z,9.52
2023-02-19T11:30:50.446Z,9.52
2023-02-19T11:32:53.933Z,9.55
2023-02-19T11:35:17.901Z,9.54
2023-02-19T11:37:22.835Z,9.61
2023-02-19T11:39:31.958Z,9.70
2023-02-19T11:41:56.550Z,9.83
2023-02-19T11:44:14.323Z,10.05
2023-02-19T11:46:29.074Z,10.27
2023-02-19T11:49:03.575Z,10.49
2023-02-19T11:51:20.145Z,10.65
2023-02-19T11:53:28.216Z,10.76
2023-02-19T11:55:45.678Z,10.92
2023-02-19T11:57:50.007Z,11.04
2023-02-19T12:00:04.646Z,11.04
2023-02-19T12:02:36.973Z,10.94
2023-02-19T12:05:08.865Z,10.80
2023-02-19T12:07:28.793Z,10.71
2023-02-19T12:09:48.538Z,10.60
2023-02-19T12:12:02.955Z,10.46
2023-02-19T12:14:35.311Z,10.31
2023-02-19T12:16:45.380Z,10.31
2023-02-19T12:19:18.945Z,10.37
2023-02-19T12:21:37.578Z,10.47
2023-02-19T12:23:58.275Z,10.56
2023-02-19T12:26:09.453Z,10.60
2023-02-19T12:28:37.717Z,10.68
2023-02-19T12:31:04.841Z,10.69
2023-02-19T12:33:44.032Z,10.64
2023-02-19T12:36:06.231Z,10.48
2023-02-19T12:38:21.916Z,10.47
2023-02-19T12:40:39.507Z,10.49
2023-02-19T12:42:56.834Z,10.52
2023-02-19T12:45:06.607Z,10.55
2023-02-19T12:47:18.453Z,10.59
2023-02-19T12:49:28.866Z,10.62
2023-02-19T12:51:41.187Z,10.59
2023-02-19T12:53:51.479Z,10.60
2023-02-19T12:55:58.124Z,10.54
2023-02-19T12:58:05.654Z,10.52
2023-02-19T13:00:26.562Z,10.48
2023-02-19T13:02:36.573Z,10.43
2023-02-19T13:04:48.446Z,10.39
2023-02-19T13:06:57.988Z,10.37
2023-02-19T13:09:09.418Z,10.38
2023-02-19T13:11:18.555Z,10.34
2023-02-19T13:13:27.097Z,10.32
2023-02-19T13:15:36.233Z,10.32
2023-02-19T13:17:45.560Z,10.33
2023-02-19T13:19:51.841Z,10.36
2023-02-19T13:22:23.986Z,10.36
2023-02-19T13:24:30.408Z,10.36
2023-02-19T13:26:49.347Z,10.40
2023-02-19T13:29:09.477Z,10.43
2023-02-19T13:31:33.252Z,10.45
2023-02-19T13:33:48.428Z,10.51
2023-02-19T13:36:08.309Z,10.55
2023-02-19T13:38:15.198Z,10.58
2023-02-19T13:40:27.205Z,10.64
2023-02-19T13:42:34.890Z,10.64
2023-02-19T13:44:42.199Z,10.71
2023-02-19T13:46:47.706Z,10.75
2023-02-19T13:49:38.670Z,10.76
2023-02-19T13:51:51.561Z,10.72
2023-02-19T13:54:00.789Z,10.66
2023-02-19T13:56:04.447Z,10.65
2023-02-19T13:59:01.599Z,10.62
2023-02-19T14:01:06.864Z,10.63
2023-02-19T14:03:30.671Z,10.61
2023-02-19T14:06:09.920Z,10.62
2023-02-19T14:08:14.954Z,10.59
2023-02-19T14:10:58.093Z,10.55
2023-02-19T14:13:01.619Z,10.50
2023-02-19T14:15:49.942Z,10.47
2023-02-19T14:17:55.390Z,10.50
2023-02-19T14:20:01.375Z,10.48
2023-02-19T14:22:43.862Z,10.46
2023-02-19T14:24:49.310Z,10.44
2023-02-19T14:26:53.344Z,10.45
2023-02-19T14:28:57.476Z,10.45
2023-02-19T14:31:04.267Z,10.46
2023-02-19T14:33:12.029Z,10.46
2023-02-19T14:35:20.655Z,10.45
2023-02-19T14:37:24.483Z,10.46
2023-02-19T14:39:31.363Z,10.46
2023-02-19T14:41:41.854Z,10.46
2023-02-19T14:43:48.346Z,10.48
2023-02-19T14:45:56.504Z,10.51
2023-02-19T14:48:03.621Z,10.54
2023-02-19T14:50:10.778Z,10.57
2023-02-19T14:52:19.729Z,10.59
2023-02-19T14:54:37.214Z,10.63
2023-02-19T14:56:45.949Z,10.64
2023-02-19T14:59:08.495Z,10.65
2023-02-19T15:01:27.532Z,10.68
2023-02-19T15:03:34.752Z,10.70
2023-02-19T15:05:38.874Z,10.69
2023-02-19T15:07:43.857Z,10.69
2023-02-19T15:09:50.532Z,10.69
2023-02-19T15:11:57.266Z,10.69
2023-02-19T15:14:04.019Z,10.69
2023-02-19T15:16:08.818Z,10.69
2023-02-19T15:18:18.271Z,10.70
2023-02-19T15:20:26.969Z,10.70
2023-02-19T15:22:32.833Z,10.70
2023-02-19T15:24:36.520Z,10.72
2023-02-19T15:26:41.902Z,10.73
2023-02-19T15:28:46.921Z,10.75
2023-02-19T15:30:50.636Z,10.78
2023-02-19T15:32:56.185Z,10.78
2023-02-19T15:35:01.187Z,10.81
2023-02-19T15:37:06.571Z,10.82
2023-02-19T15:39:21.073Z,10.84
2023-02-19T15:41:28.745Z,10.85
2023-02-19T15:43:34.829Z,10.88
2023-02-19T15:45:45.946Z,10.89
2023-02-19T15:47:50.773Z,10.90
2023-02-19T15:49:59.866Z,10.91
2023-02-19T15:52:09.457Z,10.93
2023-02-19T15:54:27.110Z,10.95
2023-02-19T15:56:33.797Z,10.96
2023-02-19T15:58:42.891Z,10.96
2023-02-19T16:00:51.782Z,10.98
2023-02-19T16:02:55.459Z,11.01
2023-02-19T16:05:02.372Z,11.05
2023-02-19T16:07:05.885Z,11.08
2023-02-19T16:09:22.417Z,11.14
2023-02-19T16:11:31.431Z,11.17
2023-02-19T16:13:36.276Z,11.19
2023-02-19T16:15:40.846Z,11.18
2023-02-19T16:17:46.339Z,11.17
2023-02-19T16:19:54.736Z,11.17
2023-02-19T16:21:59.869Z,11.16
2023-02-19T16:24:15.730Z,11.13
2023-02-19T16:26:20.191Z,11.10
2023-02-19T16:28:26.123Z,11.07
2023-02-19T16:30:34.205Z,11.03
2023-02-19T16:33:31.228Z,11.00
2023-02-19T16:35:52.723Z,10.97
2023-02-19T16:38:01.059Z,10.96
2023-02-19T16:40:52.624Z,10.96
2023-02-19T16:43:25.878Z,10.96
2023-02-19T16:45:29.422Z,10.95
2023-02-19T16:47:35.063Z,10.93
2023-02-19T16:49:38.977Z,10.91
2023-02-19T16:51:45.799Z,10.90
2023-02-19T16:53:49.260Z,10.88
2023-02-19T16:55:53.184Z,10.87
2023-02-19T16:57:57.283Z,10.85
2023-02-19T17:00:00.923Z,10.84
2023-02-19T17:02:06.355Z,10.81
2023-02-19T17:04:12.958Z,10.81
2023-02-19T17:06:17.457Z,10.79
2023-02-19T17:08:33.977Z,10.78
2023-02-19T17:10:38.030Z,10.76
2023-02-19T17:12:41.547Z,10.75
2023-02-19T17:14:45.231Z,10.75
2023-02-19T17:16:48.891Z,10.77
2023-02-19T17:18:52.678Z,10.78
2023-02-19T17:21:01.932Z,10.78
2023-02-19T17:23:05.818Z,10.78
2023-02-19T17:25:10.905Z,10.78
2023-02-19T17:27:14.840Z,10.79
2023-02-19T17:29:20.026Z,10.78
2023-02-19T17:31:23.821Z,10.76
2023-02-19T17:33:27.500Z,10.77
2023-02-19T17:35:31.119Z,10.78
2023-02-19T17:37:34.700Z,10.78
2023-02-19T17:39:37.998Z,10.79
2023-02-19T17:41:43.099Z,10.81
2023-02-19T17:43:47.668Z,10.82
2023-02-19T17:45:51.280Z,10.84
2023-02-19T17:47:54.858Z,10.87
2023-02-19T17:49:58.307Z,10.88
2023-02-19T17:52:01.932Z,10.91
2023-02-19T17:54:08.244Z,10.93
2023-02-19T17:56:16.834Z,10.95
2023-02-19T17:58:21.860Z,10.97
2023-02-19T18:00:26.399Z,10.99
2023-02-19T18:02:30.048Z,11.02
2023-02-19T18:04:35.558Z,11.02
2023-02-19T18:06:39.909Z,11.03
2023-02-19T18:08:48.826Z,11.02
2023-02-19T18:10:52.744Z,11.03
2023-02-19T18:12:56.223Z,11.04
2023-02-19T18:15:01.184Z,11.04
2023-02-19T18:17:04.572Z,11.05
2023-02-19T18:19:09.094Z,11.07
2023-02-19T18:21:14.447Z,11.08
2023-02-19T18:23:20.737Z,11.08
2023-02-19T18:25:24.965Z,11.09
2023-02-19T18:27:28.615Z,11.08
2023-02-19T18:29:35.040Z,11.08
2023-02-19T18:31:40.647Z,11.09
2023-02-19T18:33:44.336Z,11.10
2023-02-19T18:35:50.483Z,11.10
2023-02-19T18:37:56.023Z,11.10
2023-02-19T18:39:59.611Z,11.09
2023-02-19T18:42:03.334Z,11.09
2023-02-19T18:44:07.165Z,11.10
2023-02-19T18:46:11.220Z,11.11
2023-02-19T18:48:16.167Z,11.11
2023-02-19T18:50:21.142Z,11.12
2023-02-19T18:52:26.367Z,11.13
2023-02-19T18:54:30.292Z,11.13
2023-02-19T18:56:33.828Z,11.13
2023-02-19T18:58:37.322Z,11.15
2023-02-19T19:00:40.862Z,11.15
2023-02-19T19:02:49.691Z,11.15
2023-02-19T19:04:57.262Z,11.15
2023-02-19T19:07:00.877Z,11.15
2023-02-19T19:09:04.682Z,11.14
2023-02-19T19:11:08.206Z,11.15
2023-02-19T19:13:11.786Z,11.14
2023-02-19T19:15:18.168Z,11.14
2023-02-19T19:17:22.180Z,11.13
2023-02-19T19:19:26.018Z,11.13
2023-02-19T19:21:31.286Z,11.14
2023-02-19T19:23:35.111Z,11.13
2023-02-19T19:25:39.222Z,11.13
2023-02-19T19:27:42.993Z,11.13
2023-02-19T19:29:47.888Z,11.13
2023-02-19T19:31:52.045Z,11.12
2023-02-19T19:33:55.668Z,11.13
2023-02-19T19:35:59.316Z,11.11
2023-02-19T19:38:04.444Z,11.12
2023-02-19T19:40:09.808Z,11.12
2023-02-19T19:42:13.621Z,11.12
2023-02-19T19:44:17.286Z,11.13
2023-02-19T19:46:21.193Z,11.14
2023-02-19T19:48:27.741Z,11.11
2023-02-19T19:50:31.563Z,11.12
2023-02-19T19:52:35.265Z,11.11
2023-02-19T19:54:42.314Z,11.11
2023-02-19T19:56:50.551Z,11.08
2023-02-19T19:58:54.599Z,11.05
2023-02-19T20:00:59.359Z,11.03
2023-02-19T20:03:03.437Z,11.00
2023-02-19T20:05:07.919Z,10.97
2023-02-19T20:07:11.855Z,10.96
2023-02-19T20:09:15.873Z,10.95
2023-02-19T20:11:21.255Z,10.93
2023-02-19T20:13:26.840Z,10.93
2023-02-19T20:15:30.656Z,10.91
2023-02-19T20:17:34.672Z,10.91
2023-02-19T20:19:38.547Z,10.89
2023-02-19T20:21:46.137Z,10.89
2023-02-19T20:23:49.655Z,10.88
2023-02-19T20:25:53.427Z,10.86
2023-02-19T20:27:58.751Z,10.83
2023-02-19T20:30:02.480Z,10.82
2023-02-19T20:32:06.684Z,10.81
2023-02-19T20:34:10.545Z,10.80
2023-02-19T20:36:14.556Z,10.79
2023-02-19T20:38:18.554Z,10.77
2023-02-19T20:40:24.442Z,10.76
2023-02-19T20:42:28.082Z,10.76
2023-02-19T20:44:33.808Z,10.75
2023-02-19T20:46:42.722Z,10.74
2023-02-19T20:48:46.471Z,10.71
2023-02-19T20:50:50.210Z,10.70
2023-02-19T20:52:55.948Z,10.67
2023-02-19T20:54:59.623Z,10.67
2023-02-19T20:57:05.482Z,10.66
2023-02-19T20:59:09.722Z,10.64
2023-02-19T21:01:15.060Z,10.63
2023-02-19T21:03:18.877Z,10.64
2023-02-19T21:05:23.296Z,10.62
2023-02-19T21:07:27.615Z,10.62
2023-02-19T21:09:32.539Z,10.61
2023-02-19T21:11:36.270Z,10.59
2023-02-19T21:13:41.456Z,10.57
2023-02-19T21:15:45.743Z,10.54
2023-02-19T21:17:51.879Z,10.53
2023-02-19T21:19:56.276Z,10.50
2023-02-19T21:22:00.228Z,10.48
2023-02-19T21:24:04.490Z,10.45
2023-02-19T21:26:08.412Z,10.43
2023-02-19T21:28:12.788Z,10.42
2023-02-19T21:30:16.736Z,10.40
2023-02-19T21:32:20.725Z,10.38
2023-02-19T21:34:27.778Z,10.36
2023-02-19T21:36:31.597Z,10.34
2023-02-19T21:38:35.596Z,10.31
2023-02-19T21:40:39.629Z,10.30
2023-02-19T21:42:43.412Z,10.31
2023-02-19T21:44:48.040Z,10.29
2023-02-19T21:46:52.685Z,10.28
2023-02-19T21:48:57.771Z,10.27
2023-02-19T21:51:05.051Z,10.26
2023-02-19T21:53:08.600Z,10.26
2023-02-19T21:55:12.199Z,10.24
2023-02-19T21:57:16.122Z,10.24
2023-02-19T21:59:20.819Z,10.23
2023-02-19T22:01:24.850Z,10.23
2023-02-19T22:03:28.712Z,10.22
2023-02-19T22:05:32.478Z,10.22
2023-02-19T22:07:37.688Z,10.22
2023-02-19T22:09:41.609Z,10.21
2023-02-19T22:11:45.231Z,10.22
2023-02-19T22:13:49.113Z,10.21
2023-02-19T22:15:52.765Z,10.20
2023-02-19T22:17:56.474Z,10.19
2023-02-19T22:20:00.362Z,10.18
2023-02-19T22:22:05.024Z,10.19
2023-02-19T22:24:16.528Z,10.16
2023-02-19T22:26:21.732Z,10.15
2023-02-19T22:28:25.282Z,10.14
2023-02-19T22:30:29.389Z,10.14
2023-02-19T22:32:33.114Z,10.14
2023-02-19T22:34:40.750Z,10.13
2023-02-19T22:36:45.194Z,10.13
2023-02-19T22:38:49.394Z,10.13
2023-02-19T22:40:54.787Z,10.12
2023-02-19T22:42:58.392Z,10.12
2023-02-19T22:45:02.422Z,10.10
2023-02-19T22:47:06.394Z,10.09
2023-02-19T22:49:10.029Z,10.08
2023-02-19T22:51:14.991Z,10.07
2023-02-19T22:53:19.116Z,10.05
2023-02-19T22:55:23.524Z,10.05
2023-02-19T22:57:28.944Z,10.04
2023-02-19T22:59:32.841Z,10.03
2023-02-19T23:01:36.950Z,10.03
2023-02-19T23:03:47.827Z,10.02
2023-02-19T23:05:51.634Z,10.02
2023-02-19T23:07:55.483Z,10.02
2023-02-19T23:09:59.499Z,10.02
2023-02-19T23:12:04.689Z,10.02
2023-02-19T23:14:10.261Z,10.03
2023-02-19T23:16:14.570Z,10.03
2023-02-19T23:18:18.590Z,10.02
2023-02-19T23:20:22.511Z,10.02
2023-02-19T23:22:26.602Z,10.03
2023-02-19T23:24:30.489Z,10.02
2023-02-19T23:26:34.219Z,10.04
2023-02-19T23:28:37.852Z,10.04
2023-02-19T23:30:43.135Z,10.03
2023-02-19T23:32:46.899Z,10.05
2023-02-19T23:34:50.696Z,10.06
2023-02-19T23:36:55.626Z,10.06
2023-02-19T23:38:59.061Z,10.06
2023-02-19T23:41:02.897Z,10.06
2023-02-19T23:43:06.595Z,10.07
2023-02-19T23:45:10.846Z,10.05
2023-02-19T23:47:16.139Z,10.05
2023-02-19T23:49:20.170Z,10.05
2023-02-19T23:51:24.868Z,10.04
2023-02-19T23:53:28.378Z,10.05
2023-02-19T23:55:31.867Z,10.04
2023-02-19T23:57:35.455Z,10.03
2023-02-19T23:59:38.969Z,10.02
